Time;durP1;ratioP1;P1;durP2;ratioP2;P2;SDS_P1;SDS_P2;PMS_P1;PMS_P2;Temp;Humidity;BMP_temperature;BMP_pressure;BME280_temperature;BME280_humidity;BME280_pressure;Samples;Min_cycle;Max_cycle;Signal;HPM_P1;HPM_P2
2022/05/26 00:29:16;;;;;;;1.50;1.40;;;13.80;99.90;;;;;;5844163;23;21415;-96
2022/05/26 00:31:45;;;;;;;1.90;1.30;;;13.80;99.90;;;;;;4839476;29;20520;-96
2022/05/26 00:34:26;;;;;;;2.37;1.40;;;13.80;99.90;;;;;;4848988;29;20880;-96
2022/05/26 00:36:51;;;;;;;1.57;1.40;;;13.80;99.90;;;;;;4833731;29;20560;-94
2022/05/26 00:39:22;;;;;;;1.20;1.20;;;13.80;99.90;;;;;;4830534;29;20516;-96
2022/05/26 00:42:08;;;;;;;2.50;1.37;;;13.70;99.90;;;;;;4827322;29;20191;-95
2022/05/26 00:44:34;;;;;;;1.90;1.40;;;13.50;99.90;;;;;;4852649;29;20444;-96
2022/05/26 00:47:04;;;;;;;1.70;1.60;;;13.40;99.90;;;;;;4829918;29;20974;-96
2022/05/26 00:49:48;;;;;;;1.57;1.23;;;13.40;99.90;;;;;;4849346;29;20465;-96
2022/05/26 00:52:19;;;;;;;1.57;1.47;;;13.40;99.90;;;;;;4835764;29;20525;-95
2022/05/26 00:54:46;;;;;;;2.80;1.53;;;13.30;99.90;;;;;;4835338;29;20455;-95
2022/05/26 00:57:20;;;;;;;2.60;1.50;;;13.10;99.90;;;;;;4829436;29;20449;-95
2022/05/26 01:00:19;;;;;;;2.40;1.30;;;13.00;99.90;;;;;;4829791;29;20738;-94
2022/05/26 01:03:16;;;;;;;1.80;1.70;;;12.90;99.90;;;;;;4836970;29;20737;-96
2022/05/26 01:05:56;;;;;;;1.73;1.63;;;12.90;99.90;;;;;;4829337;29;20459;-96
2022/05/26 01:08:30;;;;;;;1.77;1.50;;;13.00;99.90;;;;;;4841372;29;20483;-96
2022/05/26 01:10:59;;;;;;;2.23;1.93;;;13.00;99.90;;;;;;4837160;29;21008;-96
2022/05/26 01:13:38;;;;;;;2.20;1.60;;;12.90;99.90;;;;;;4845752;29;20455;-96
2022/05/26 01:16:38;;;;;;;1.70;1.60;;;12.90;99.90;;;;;;4839523;29;20452;-96
2022/05/26 01:19:13;;;;;;;1.80;1.67;;;12.90;99.90;;;;;;4852044;29;20440;-96
2022/05/26 01:22:12;;;;;;;2.50;2.00;;;12.90;99.90;;;;;;4839923;29;20466;-96
2022/05/26 01:25:26;;;;;;;3.70;2.00;;;12.80;99.90;;;;;;4837003;29;20448;-96
2022/05/26 01:28:27;;;;;;;2.37;1.87;;;12.80;99.90;;;;;;4837180;29;20490;-95
2022/05/26 01:31:37;;;;;;;2.33;2.20;;;12.80;99.90;;;;;;4834292;29;20495;-95
2022/05/26 01:34:06;;;;;;;3.47;2.30;;;12.60;99.90;;;;;;4845915;29;20473;-95
2022/05/26 01:36:52;;;;;;;1.93;1.83;;;12.60;99.90;;;;;;4831417;29;20452;-96
2022/05/26 01:40:04;;;;;;;3.33;1.93;;;12.50;99.90;;;;;;4837196;29;20448;-96
2022/05/26 01:42:53;;;;;;;2.07;1.97;;;12.50;99.90;;;;;;4844258;29;20450;-95
2022/05/26 01:45:50;;;;;;;2.33;2.10;;;12.50;99.90;;;;;;4841998;29;20449;-96
2022/05/26 01:48:25;;;;;;;2.57;2.00;;;12.60;99.90;;;;;;4838891;29;20491;-96
2022/05/26 01:51:00;;;;;;;2.60;2.00;;;12.60;99.90;;;;;;4843336;29;20492;-96
2022/05/26 01:53:46;;;;;;;2.07;1.97;;;12.50;99.90;;;;;;4851508;29;20456;-95
2022/05/26 01:56:13;;;;;;;2.50;2.30;;;12.40;99.90;;;;;;4840806;29;20444;-96
2022/05/26 01:58:43;;;;;;;1.93;1.83;;;12.40;99.90;;;;;;4834007;29;20452;-96
2022/05/26 02:01:12;;;;;;;3.00;1.83;;;12.40;99.90;;;;;;4836007;29;20447;-96
2022/05/26 02:03:42;;;;;;;2.20;2.10;;;12.30;99.90;;;;;;4836324;29;20492;-96
2022/05/26 02:06:29;;;;;;;4.70;2.13;;;12.30;99.90;;;;;;4830692;29;20455;-94
2022/05/26 02:09:02;;;;;;;2.43;2.23;;;12.30;99.90;;;;;;4840549;29;20471;-97
2022/05/26 02:37:53;;;;;;;1.83;1.73;;;12.20;99.90;;;;;;5760618;23;21233;-96
2022/05/26 02:40:46;;;;;;;2.60;1.97;;;12.30;99.90;;;;;;4866142;29;20474;-96
2022/05/26 02:43:29;;;;;;;2.37;1.90;;;12.20;99.90;;;;;;4862880;29;20441;-95
2022/05/26 02:46:31;;;;;;;2.03;1.90;;;12.10;99.90;;;;;;4858066;29;20795;-95
2022/05/26 02:50:15;;;;;;;2.87;1.97;;;12.10;99.90;;;;;;4874575;29;20495;-96
2022/05/26 02:53:20;;;;;;;1.67;1.53;;;12.10;99.90;;;;;;4865663;29;20443;-96
2022/05/26 02:55:54;;;;;;;2.10;2.00;;;12.00;99.90;;;;;;4851430;29;20455;-95
2022/05/26 02:58:45;;;;;;;2.10;1.90;;;12.00;99.90;;;;;;4870596;29;20451;-95
2022/05/26 03:01:30;;;;;;;2.50;2.30;;;12.00;99.90;;;;;;4884444;29;20426;-95
2022/05/26 03:04:15;;;;;;;2.00;1.90;;;11.90;99.90;;;;;;4848770;29;20482;-95
2022/05/26 03:06:46;;;;;;;2.37;2.17;;;11.90;99.90;;;;;;4855581;29;20453;-95
2022/05/26 03:09:19;;;;;;;2.47;2.00;;;12.00;99.90;;;;;;4854253;29;20454;-95
2022/05/26 03:12:05;;;;;;;3.63;2.20;;;12.00;99.90;;;;;;4862172;29;20491;-96
2022/05/26 03:14:31;;;;;;;1.80;1.70;;;11.90;99.90;;;;;;4866115;29;20475;-96
2022/05/26 03:16:59;;;;;;;2.23;1.97;;;11.90;99.90;;;;;;4853365;29;20452;-96
2022/05/26 03:19:31;;;;;;;2.43;2.07;;;11.90;99.90;;;;;;4851683;29;20513;-96
2022/05/26 03:21:56;;;;;;;3.30;1.73;;;11.80;99.90;;;;;;4849902;29;20578;-94
2022/05/26 03:24:46;;;;;;;1.77;1.67;;;11.70;99.90;;;;;;4845246;29;21013;-96
2022/05/26 03:27:26;;;;;;;2.10;2.00;;;11.70;99.90;;;;;;4853151;29;20715;-95
2022/05/26 03:30:01;;;;;;;2.30;2.10;;;11.70;99.90;;;;;;4847898;29;20521;-96
2022/05/26 03:32:26;;;;;;;2.80;1.70;;;11.60;99.90;;;;;;4863174;29;20450;-94
2022/05/26 03:43:07;;;;;;;2.00;1.90;;;11.60;99.90;;;;;;4854209;29;20546;-96
2022/05/26 03:45:36;;;;;;;2.00;1.80;;;11.60;99.90;;;;;;4850018;29;20506;-94
2022/05/26 03:48:26;;;;;;;2.10;2.00;;;11.60;99.90;;;;;;4849179;29;20511;-95
2022/05/26 03:51:24;;;;;;;1.80;1.70;;;11.60;99.90;;;;;;4849180;29;20451;-95
2022/05/26 03:53:50;;;;;;;1.97;1.80;;;11.60;99.90;;;;;;4863929;29;20962;-95
2022/05/26 03:56:20;;;;;;;2.13;2.03;;;11.60;99.90;;;;;;4850064;29;20448;-96
2022/05/26 03:58:48;;;;;;;5.50;3.00;;;11.60;99.90;;;;;;4855712;29;20458;-96
2022/05/26 04:01:24;;;;;;;3.10;2.40;;;11.50;99.90;;;;;;4858726;29;20455;-96
2022/05/26 04:03:49;;;;;;;2.63;2.53;;;11.50;99.90;;;;;;4848120;29;21140;-95
2022/05/26 04:06:43;;;;;;;2.80;2.60;;;11.40;99.90;;;;;;4846945;29;20475;-94
2022/05/26 04:09:29;;;;;;;2.53;2.33;;;11.50;99.90;;;;;;4854709;29;20454;-96
2022/05/26 04:11:55;;;;;;;2.23;2.10;;;11.50;99.90;;;;;;4858380;29;20462;-96
2022/05/26 04:14:21;;;;;;;2.37;2.23;;;11.60;99.90;;;;;;4853125;29;20451;-96
2022/05/26 04:16:46;;;;;;;4.00;2.00;;;11.70;99.90;;;;;;4851175;29;20194;-95
2022/05/26 04:19:12;;;;;;;4.57;1.90;;;11.70;99.90;;;;;;4864787;29;20741;-96
2022/05/26 04:22:14;;;;;;;2.07;1.97;;;11.70;99.90;;;;;;4848334;29;20186;-96
2022/05/26 04:24:23;;;;;;;1.90;1.73;;;11.70;99.90;;;;;;4846398;29;20194;-96
2022/05/26 04:26:49;;;;;;;2.10;1.83;;;11.80;99.90;;;;;;4847937;29;20650;-96
2022/05/26 04:29:23;;;;;;;1.63;1.53;;;11.80;99.90;;;;;;4861553;29;20199;-96
2022/05/26 04:31:50;;;;;;;1.70;1.60;;;11.90;99.90;;;;;;4855432;29;20209;-96
2022/05/26 04:34:17;;;;;;;1.50;1.40;;;12.00;99.90;;;;;;4864444;29;20530;-96
2022/05/26 04:36:43;;;;;;;1.50;1.40;;;12.00;99.90;;;;;;4850845;29;20469;-96
2022/05/26 04:39:10;;;;;;;1.53;1.43;;;12.00;99.90;;;;;;4846819;29;20463;-96
2022/05/26 04:41:36;;;;;;;3.13;1.80;;;12.10;99.90;;;;;;4825763;29;20851;-93
2022/05/26 04:44:01;;;;;;;1.50;1.40;;;12.10;99.90;;;;;;4840971;29;20447;-95
2022/05/26 04:46:27;;;;;;;3.10;1.80;;;12.20;99.90;;;;;;4831590;29;20190;-93
2022/05/26 04:48:52;;;;;;;2.80;1.70;;;12.20;99.90;;;;;;4825001;29;20274;-93
2022/05/26 04:51:18;;;;;;;1.50;1.50;;;12.20;99.90;;;;;;4833402;29;21302;-95
2022/05/26 04:53:46;;;;;;;2.50;1.60;;;12.20;99.90;;;;;;4841345;29;20209;-96
2022/05/26 04:56:11;;;;;;;2.00;1.30;;;12.30;99.90;;;;;;4840881;29;20454;-95
2022/05/26 04:58:37;;;;;;;1.67;1.57;;;12.30;99.90;;;;;;4838610;29;20439;-96
2022/05/26 05:01:23;;;;;;;1.70;1.60;;;12.30;99.90;;;;;;4844046;29;20216;-96
2022/05/26 05:04:05;;;;;;;1.77;1.50;;;12.40;99.90;;;;;;4840015;29;20495;-96
2022/05/26 05:06:31;;;;;;;2.60;1.40;;;12.50;99.90;;;;;;4865048;29;20457;-95
2022/05/26 05:19:27;;;;;;;2.90;1.67;;;12.80;99.90;;;;;;4868639;23;20511;-95
2022/05/26 05:22:00;;;;;;;1.70;1.60;;;13.00;99.90;;;;;;4833282;29;20507;-96
2022/05/26 05:24:31;;;;;;;1.63;1.40;;;13.10;99.90;;;;;;4817072;29;20448;-92
2022/05/26 05:27:05;;;;;;;1.60;1.50;;;13.20;99.90;;;;;;4819284;29;20468;-89
2022/05/26 05:29:37;;;;;;;1.50;1.40;;;13.20;99.90;;;;;;4809946;29;20817;-94
2022/05/26 05:32:13;;;;;;;1.63;1.43;;;13.30;99.90;;;;;;4803484;29;20467;-92
2022/05/26 05:34:45;;;;;;;5.10;1.50;;;13.40;99.90;;;;;;4806419;29;20797;-93
2022/05/26 05:37:11;;;;;;;1.70;1.60;;;13.50;99.90;;;;;;4827189;29;20534;-91
2022/05/26 05:39:37;;;;;;;1.70;1.60;;;13.60;99.90;;;;;;4815432;29;20460;-92
2022/05/26 05:42:04;;;;;;;1.93;1.70;;;13.70;99.90;;;;;;4828685;29;20686;-91
2022/05/26 05:44:30;;;;;;;2.60;1.60;;;13.80;99.90;;;;;;4817779;29;20191;-94
2022/05/26 05:46:59;;;;;;;1.50;1.40;;;13.90;99.90;;;;;;4832699;29;20460;-92
2022/05/26 05:49:32;;;;;;;1.40;1.30;;;14.10;99.90;;;;;;4813301;29;20452;-94
2022/05/26 05:52:20;;;;;;;4.27;2.17;;;14.10;99.90;;;;;;4815198;29;20451;-92
2022/05/26 05:54:46;;;;;;;1.47;1.30;;;14.30;99.90;;;;;;4833151;29;20836;-90
2022/05/26 06:00:06;;;;;;;31.87;29.10;;;14.60;99.90;;;;;;4845230;29;20227;-96
2022/05/26 06:02:32;;;;;;;1.50;1.40;;;14.70;99.90;;;;;;4823817;29;20439;-95
2022/05/26 06:05:21;;;;;;;1.40;1.30;;;14.70;99.90;;;;;;4823604;29;20453;-86
2022/05/26 06:07:56;;;;;;;1.97;1.27;;;14.80;99.90;;;;;;4821156;29;21049;-92
2022/05/26 06:10:49;;;;;;;2.30;1.50;;;14.80;99.90;;;;;;4831569;29;20514;-95
2022/05/26 06:13:36;;;;;;;1.40;1.27;;;14.90;99.90;;;;;;4818613;29;20451;-96
2022/05/26 06:16:13;;;;;;;2.00;1.60;;;15.00;99.90;;;;;;4830445;29;20463;-96
2022/05/26 06:18:45;;;;;;;5.77;1.57;;;15.10;99.90;;;;;;4843503;29;20597;-93
2022/05/26 06:21:25;;;;;;;2.33;1.03;;;15.20;99.90;;;;;;4833396;29;20456;-96
2022/05/26 06:24:10;;;;;;;2.83;0.90;;;15.40;99.90;;;;;;4852180;29;20460;-96
2022/05/26 06:37:39;;;;;;;1.43;1.33;;;15.90;99.90;;;;;;5800611;23;20405;-88
2022/05/26 06:47:50;;;;;;;0.70;0.70;;;16.30;99.90;;;;;;5150439;23;20511;-89
2022/05/26 06:50:30;;;;;;;1.97;0.93;;;16.60;99.40;;;;;;4813727;29;20827;-92
2022/05/26 06:53:04;;;;;;;2.37;1.20;;;16.60;98.70;;;;;;4804320;29;20195;-90
2022/05/26 06:55:30;;;;;;;1.00;1.00;;;16.60;98.50;;;;;;4811025;29;20476;-88
2022/05/26 06:57:55;;;;;;;1.80;0.90;;;16.60;98.50;;;;;;4818162;29;20498;-95
2022/05/26 07:00:24;;;;;;;1.93;1.00;;;16.50;98.00;;;;;;4812746;29;21472;-92
2022/05/26 07:02:52;;;;;;;1.17;1.07;;;16.40;98.40;;;;;;4811439;29;21560;-95
2022/05/26 07:05:20;;;;;;;0.97;0.90;;;16.30;98.60;;;;;;4807196;29;20987;-93
2022/05/26 07:07:49;;;;;;;1.17;0.80;;;16.30;98.30;;;;;;4814353;29;20462;-95
2022/05/26 07:10:17;;;;;;;0.93;0.93;;;16.50;98.00;;;;;;4825390;29;20479;-94
2022/05/26 07:12:48;;;;;;;2.00;1.00;;;16.80;98.00;;;;;;4816793;29;20456;-94
2022/05/26 07:15:42;;;;;;;0.90;0.90;;;16.90;98.20;;;;;;4804819;29;21010;-94
2022/05/26 07:18:33;;;;;;;1.03;0.93;;;17.00;97.70;;;;;;4812810;29;20985;-96
2022/05/26 07:21:10;;;;;;;1.90;1.00;;;17.00;97.70;;;;;;4816261;29;20443;-94
2022/05/26 07:23:51;;;;;;;1.47;0.90;;;16.80;97.50;;;;;;4809930;29;20462;-96
2022/05/26 07:26:18;;;;;;;2.60;1.00;;;16.70;98.00;;;;;;4844131;29;20424;-96
2022/05/26 07:28:44;;;;;;;1.27;1.00;;;16.80;98.20;;;;;;4824022;29;20490;-96
2022/05/26 07:31:12;;;;;;;1.50;1.07;;;16.90;98.00;;;;;;4837156;29;20470;-96
2022/05/26 07:33:38;;;;;;;5.00;1.10;;;17.10;97.80;;;;;;4832075;29;20435;-96
2022/05/26 07:36:05;;;;;;;0.77;0.77;;;17.50;97.20;;;;;;4845743;29;20514;-96
2022/05/26 07:41:36;;;;;;;0.90;0.70;;;17.90;97.00;;;;;;4985251;23;20996;-96
2022/05/26 07:44:02;;;;;;;1.87;0.97;;;18.20;95.90;;;;;;4841839;29;20523;-93
2022/05/26 07:46:40;;;;;;;1.83;1.10;;;18.20;95.70;;;;;;4845259;29;21040;-95
2022/05/26 07:49:12;;;;;;;1.13;1.00;;;18.20;95.70;;;;;;4831809;29;20673;-93
2022/05/26 07:51:44;;;;;;;1.90;0.90;;;18.10;95.70;;;;;;4841420;29;20451;-90
2022/05/26 07:54:10;;;;;;;1.83;0.90;;;18.20;95.70;;;;;;4835945;29;20822;-94
2022/05/26 07:57:11;;;;;;;1.63;0.90;;;18.20;96.30;;;;;;4839787;29;20665;-94
2022/05/26 07:59:36;;;;;;;1.20;1.00;;;18.20;96.00;;;;;;4859919;29;20206;-92
2022/05/26 08:29:26;;;;;;;2.80;0.70;;;18.50;93.50;;;;;;4925667;23;20498;-96
2022/05/26 08:32:13;;;;;;;0.60;0.60;;;18.50;93.90;;;;;;4888679;29;20444;-96
2022/05/26 08:34:52;;;;;;;1.23;0.70;;;18.40;93.60;;;;;;4851500;29;20511;-93
2022/05/26 08:37:19;;;;;;;0.83;0.83;;;18.50;94.70;;;;;;4864817;29;20519;-95
2022/05/26 08:45:27;;;;;;;0.70;0.60;;;18.50;93.40;;;;;;5420880;23;20553;-93
2022/05/26 08:48:14;;;;;;;0.97;0.67;;;18.50;93.50;;;;;;4836358;29;20472;-96
2022/05/26 08:50:40;;;;;;;0.90;0.70;;;18.40;93.40;;;;;;4832144;29;20451;-92
2022/05/26 08:53:27;;;;;;;1.23;0.60;;;18.60;93.60;;;;;;4820905;29;20545;-96
2022/05/26 08:55:55;;;;;;;1.37;0.63;;;18.90;93.30;;;;;;4821657;29;20270;-93
2022/05/26 08:58:34;;;;;;;0.80;0.80;;;19.40;93.00;;;;;;4831240;29;20488;-93
2022/05/26 09:01:02;;;;;;;0.77;0.70;;;19.10;92.40;;;;;;4837913;29;20443;-96
2022/05/26 09:03:31;;;;;;;0.60;0.60;;;19.00;92.80;;;;;;4838903;29;20476;-93
2022/05/26 09:06:02;;;;;;;0.63;0.60;;;19.50;93.00;;;;;;4848705;29;20531;-93
2022/05/26 09:14:06;;;;;;;1.27;0.67;;;19.60;91.60;;;;;;4831352;29;20600;-91
2022/05/26 09:16:36;;;;;;;1.70;0.70;;;19.80;92.10;;;;;;4838353;29;20448;-94
2022/05/26 09:19:22;;;;;;;1.63;1.07;;;19.40;92.30;;;;;;4837664;29;20293;-94
2022/05/26 09:36:46;;;;;;;1.10;0.70;;;18.90;92.40;;;;;;5324841;23;20502;-96
2022/05/26 09:39:20;;;;;;;0.60;0.60;;;18.70;92.30;;;;;;4842979;29;20461;-95
2022/05/26 09:41:55;;;;;;;0.90;0.63;;;18.90;92.50;;;;;;4842906;29;20538;-95
2022/05/26 09:44:35;;;;;;;1.80;0.70;;;19.20;91.60;;;;;;4843068;29;21147;-96
2022/05/26 09:47:24;;;;;;;1.73;0.90;;;19.50;91.20;;;;;;4845637;29;20466;-96
2022/05/26 09:49:58;;;;;;;0.80;0.67;;;20.00;90.90;;;;;;4853499;29;20482;-95
2022/05/26 09:52:38;;;;;;;1.00;0.80;;;20.10;90.80;;;;;;4846269;29;20462;-96
2022/05/26 09:55:20;;;;;;;1.20;0.63;;;19.80;90.70;;;;;;4850378;29;20455;-96
2022/05/26 09:57:51;;;;;;;1.10;0.90;;;19.50;91.10;;;;;;4828311;29;20474;-94
2022/05/26 10:00:40;;;;;;;0.83;0.83;;;19.20;90.60;;;;;;4826018;29;21266;-96
2022/05/26 10:03:29;;;;;;;1.73;1.07;;;19.10;91.60;;;;;;4864347;29;20475;-96
2022/05/26 16:11:11;;;;;;;1.13;0.90;;;26.80;66.40;;;;;;4821828;29;20513;-92
2022/05/26 16:13:41;;;;;;;1.03;0.83;;;26.60;67.50;;;;;;4823336;29;20800;-93
2022/05/26 16:16:25;;;;;;;0.97;0.87;;;29.00;65.90;;;;;;4823426;29;20645;-89
2022/05/26 16:19:26;;;;;;;0.80;0.80;;;30.90;57.00;;;;;;4824621;29;20466;-90
2022/05/26 16:21:53;;;;;;;2.03;1.07;;;27.30;62.20;;;;;;4824728;29;20450;-89
2022/05/26 16:24:39;;;;;;;1.33;0.90;;;25.30;66.90;;;;;;4817531;29;20455;-90
2022/05/26 16:27:04;;;;;;;1.00;0.90;;;25.50;66.20;;;;;;4821482;29;20449;-91
2022/05/26 16:29:31;;;;;;;0.73;0.70;;;25.20;68.00;;;;;;4819553;29;20455;-87
2022/05/26 16:31:57;;;;;;;1.00;1.00;;;24.00;67.20;;;;;;4808395;29;20288;-89
2022/05/26 16:34:22;;;;;;;2.40;1.13;;;24.70;67.80;;;;;;4830189;29;20456;-90
2022/05/26 16:36:54;;;;;;;1.70;1.20;;;26.10;65.50;;;;;;4821880;29;20246;-89
2022/05/26 16:39:22;;;;;;;2.60;0.90;;;25.90;64.40;;;;;;4835654;29;20219;-87
2022/05/26 16:41:48;;;;;;;1.00;0.90;;;25.70;63.30;;;;;;4826404;29;20546;-88
2022/05/26 16:44:18;;;;;;;0.87;0.87;;;25.30;66.90;;;;;;4835602;29;21273;-91
2022/05/26 16:46:44;;;;;;;1.50;1.07;;;26.20;63.70;;;;;;4822476;29;20458;-91
2022/05/26 16:49:11;;;;;;;0.90;0.70;;;25.70;65.50;;;;;;4836952;29;20518;-95
2022/05/26 16:52:18;;;;;;;0.90;0.90;;;24.80;66.60;;;;;;4827865;29;20253;-93
2022/05/26 17:34:06;;;;;;;1.80;0.97;;;23.70;72.20;;;;;;5329516;23;21330;-92
2022/05/26 17:37:10;;;;;;;0.80;0.80;;;23.60;71.90;;;;;;4856394;29;20455;-95
2022/05/26 17:39:35;;;;;;;1.30;1.20;;;24.10;70.60;;;;;;4824877;29;20483;-95
2022/05/26 17:42:02;;;;;;;2.20;1.13;;;24.80;69.10;;;;;;4838992;29;20638;-96
2022/05/26 17:44:31;;;;;;;1.00;1.00;;;25.00;69.10;;;;;;4833505;29;20194;-96
2022/05/26 17:46:57;;;;;;;1.20;1.10;;;24.60;70.70;;;;;;4848048;29;20440;-95
2022/05/26 17:49:25;;;;;;;1.07;1.00;;;24.60;69.90;;;;;;4843704;29;20503;-96
2022/05/26 17:51:54;;;;;;;1.60;1.33;;;23.10;73.20;;;;;;4863655;29;20481;-96
2022/05/26 17:54:22;;;;;;;1.03;1.03;;;22.50;75.80;;;;;;4851109;29;20456;-96
2022/05/26 17:56:49;;;;;;;1.20;1.07;;;22.20;76.70;;;;;;4845535;29;20934;-96
2022/05/26 17:59:16;;;;;;;1.17;1.07;;;22.60;75.30;;;;;;4845178;29;20520;-96
2022/05/26 18:01:44;;;;;;;1.30;1.20;;;23.00;74.70;;;;;;4828604;29;20705;-96
2022/05/26 18:04:13;;;;;;;1.10;1.10;;;22.50;75.90;;;;;;4845282;29;20444;-95
2022/05/26 18:06:38;;;;;;;1.10;1.00;;;22.30;76.10;;;;;;4847986;29;20456;-96
2022/05/26 18:09:04;;;;;;;1.53;1.03;;;21.70;78.00;;;;;;4847719;29;20508;-96
2022/05/26 18:11:30;;;;;;;1.33;1.20;;;21.20;79.10;;;;;;4843460;29;20718;-96
2022/05/26 18:13:55;;;;;;;2.17;1.60;;;20.60;81.00;;;;;;4841460;29;20195;-95
2022/05/26 18:16:28;;;;;;;0.90;0.90;;;20.30;82.50;;;;;;4848749;29;20186;-96
2022/05/26 18:18:56;;;;;;;1.80;1.30;;;19.70;84.00;;;;;;4844433;29;20191;-96
2022/05/26 18:21:32;;;;;;;1.20;1.10;;;19.50;85.40;;;;;;4853896;29;20443;-96
2022/05/26 18:23:57;;;;;;;3.60;1.40;;;19.50;85.90;;;;;;4849426;29;20552;-96
2022/05/26 18:26:26;;;;;;;2.50;2.30;;;19.60;87.50;;;;;;4844396;29;20451;-96
2022/05/26 18:28:55;;;;;;;2.40;2.00;;;19.60;87.10;;;;;;4853426;29;20237;-96
2022/05/26 18:31:33;;;;;;;1.63;1.53;;;19.50;87.30;;;;;;4858767;29;20447;-96
2022/05/26 18:34:00;;;;;;;2.90;2.43;;;19.40;87.90;;;;;;4871309;29;20494;-96
2022/05/26 18:36:43;;;;;;;1.40;1.27;;;19.30;88.00;;;;;;4854107;29;20452;-96
2022/05/26 18:39:11;;;;;;;2.53;1.37;;;19.30;88.50;;;;;;4857357;29;20452;-96
2022/05/26 18:42:09;;;;;;;1.00;1.00;;;19.20;88.90;;;;;;4846425;29;20452;-96
2022/05/26 18:45:01;;;;;;;1.20;1.10;;;19.10;89.70;;;;;;4850594;29;20455;-96
2022/05/26 18:47:35;;;;;;;2.40;1.20;;;18.90;90.50;;;;;;4844376;29;20447;-96
2022/05/26 18:50:10;;;;;;;1.23;1.20;;;18.80;90.80;;;;;;4839995;29;20612;-96
2022/05/26 18:52:36;;;;;;;1.80;1.10;;;18.70;90.80;;;;;;4853431;29;20471;-96
2022/05/26 18:55:04;;;;;;;2.23;1.40;;;18.70;91.00;;;;;;4860999;29;20542;-96
2022/05/26 19:03:30;;;;;;;2.20;1.43;;;18.50;91.80;;;;;;4877988;29;20526;-96
2022/05/26 19:05:59;;;;;;;1.47;1.20;;;18.40;92.20;;;;;;4876216;29;20443;-96
2022/05/26 19:08:27;;;;;;;2.23;1.17;;;18.30;92.40;;;;;;4871863;29;20506;-96
2022/05/26 19:11:41;;;;;;;1.20;1.10;;;18.30;92.60;;;;;;4880118;29;20431;-96
2022/05/26 19:14:37;;;;;;;1.20;1.20;;;18.20;92.80;;;;;;4877698;29;20446;-96
2022/05/26 19:18:05;;;;;;;1.30;1.20;;;18.10;93.40;;;;;;4874431;29;20475;-96
2022/05/26 19:20:14;;;;;;;2.53;1.67;;;18.00;93.80;;;;;;4879561;29;20522;-96
2022/05/26 19:23:13;;;;;;;1.53;1.30;;;18.00;93.90;;;;;;5173957;23;20506;-96
2022/05/26 19:38:49;;;;;;;2.47;1.67;;;17.70;95.20;;;;;;5753073;23;20494;-96
2022/05/26 19:51:52;;;;;;;2.43;1.70;;;17.40;96.00;;;;;;5480780;23;20530;-91
2022/05/26 19:54:17;;;;;;;2.10;1.90;;;17.30;96.00;;;;;;4823073;29;20963;-96
2022/05/26 19:56:44;;;;;;;1.50;1.40;;;17.40;96.20;;;;;;4821069;29;20206;-94
2022/05/26 19:59:14;;;;;;;1.77;1.67;;;17.30;96.10;;;;;;4807677;29;20203;-96
2022/05/26 20:01:41;;;;;;;1.90;1.60;;;17.30;96.50;;;;;;4815596;29;20444;-94
2022/05/26 20:04:33;;;;;;;2.73;2.53;;;17.30;96.70;;;;;;4807315;29;20451;-91
2022/05/26 20:07:07;;;;;;;2.73;2.53;;;17.20;96.80;;;;;;4804301;29;20542;-92
2022/05/26 20:09:40;;;;;;;4.67;3.23;;;17.10;97.10;;;;;;4815985;29;20531;-92
2022/05/26 20:12:06;;;;;;;2.50;1.90;;;17.10;97.20;;;;;;4810000;29;20453;-91
2022/05/26 20:14:42;;;;;;;3.17;1.87;;;17.10;97.40;;;;;;4794689;29;20465;-90
2022/05/26 20:17:31;;;;;;;1.77;1.67;;;17.00;97.50;;;;;;4787593;29;20460;-92
2022/05/26 20:20:00;;;;;;;1.90;1.80;;;17.00;97.90;;;;;;4794198;29;20814;-89
2022/05/26 20:22:26;;;;;;;1.60;1.43;;;17.00;98.00;;;;;;4812524;29;20963;-90
2022/05/26 20:24:51;;;;;;;1.80;1.70;;;17.00;97.80;;;;;;4783051;29;20548;-90
2022/05/26 20:27:17;;;;;;;2.17;2.00;;;17.00;97.80;;;;;;4802608;29;20201;-93
2022/05/26 20:29:48;;;;;;;2.20;2.10;;;16.90;97.90;;;;;;4789742;29;20287;-90
2022/05/26 20:32:19;;;;;;;1.80;1.70;;;16.90;98.10;;;;;;4807436;29;20196;-90
2022/05/26 20:34:45;;;;;;;2.03;1.83;;;16.80;98.30;;;;;;4798734;29;20476;-92
2022/05/26 20:37:12;;;;;;;2.20;2.00;;;16.70;98.50;;;;;;4790563;29;20448;-91
2022/05/26 20:39:50;;;;;;;2.30;2.10;;;16.70;98.50;;;;;;4817388;29;20508;-92
2022/05/26 20:42:16;;;;;;;2.13;1.90;;;16.70;98.50;;;;;;4796058;29;21141;-92
2022/05/26 20:44:54;;;;;;;3.37;1.90;;;16.70;98.60;;;;;;4802104;29;20539;-94
2022/05/26 20:47:22;;;;;;;2.10;2.00;;;16.60;99.20;;;;;;4803328;29;20440;-86
2022/05/26 20:49:51;;;;;;;3.83;2.00;;;16.50;99.10;;;;;;4778631;29;21372;-91
2022/05/26 20:52:22;;;;;;;2.17;2.07;;;16.50;99.80;;;;;;4776216;29;20555;-91
2022/05/26 20:54:49;;;;;;;2.00;1.90;;;16.50;99.60;;;;;;4778371;29;20453;-89
2022/05/26 20:57:24;;;;;;;2.13;2.03;;;16.40;99.90;;;;;;4796732;29;20455;-92
2022/05/26 20:59:52;;;;;;;2.10;1.90;;;16.30;99.90;;;;;;4793028;29;20472;-89
2022/05/26 21:02:19;;;;;;;2.53;2.23;;;16.40;99.90;;;;;;4797269;29;21246;-89
2022/05/26 21:04:45;;;;;;;1.93;1.67;;;16.30;99.90;;;;;;4786092;29;20448;-89
2022/05/26 21:07:11;;;;;;;1.80;1.70;;;16.20;99.90;;;;;;4784334;29;20571;-89
2022/05/26 21:09:38;;;;;;;2.00;1.90;;;16.10;99.90;;;;;;4784931;29;20557;-88
2022/05/26 21:12:04;;;;;;;2.33;2.13;;;16.10;99.90;;;;;;4792677;29;21166;-89
2022/05/26 21:14:30;;;;;;;1.80;1.70;;;16.00;99.90;;;;;;4788575;29;22357;-91
2022/05/26 21:16:57;;;;;;;2.27;1.90;;;15.80;99.90;;;;;;4782850;29;20449;-91
2022/05/26 21:19:25;;;;;;;6.20;2.07;;;15.70;99.90;;;;;;4783236;29;20283;-89
2022/05/26 21:21:52;;;;;;;2.17;1.97;;;15.50;99.90;;;;;;4784771;29;20910;-91
2022/05/26 21:24:33;;;;;;;2.20;1.80;;;15.40;99.90;;;;;;4786741;29;20518;-91
2022/05/26 21:27:51;;;;;;;2.30;2.00;;;15.30;99.90;;;;;;4815975;29;20452;-91
2022/05/26 21:31:02;;;;;;;2.40;2.20;;;15.30;99.90;;;;;;4786052;29;20563;-88
2022/05/26 21:33:29;;;;;;;2.13;2.00;;;15.30;99.90;;;;;;4805266;29;20480;-92
2022/05/26 21:35:57;;;;;;;2.27;2.13;;;15.20;99.90;;;;;;4789380;29;20457;-89
2022/05/26 21:38:26;;;;;;;3.10;2.10;;;15.20;99.90;;;;;;4780202;29;21522;-90
2022/05/26 21:41:03;;;;;;;3.60;2.10;;;15.20;99.90;;;;;;4810270;29;20463;-92
2022/05/26 21:43:40;;;;;;;2.40;1.77;;;15.20;99.90;;;;;;4798947;29;21249;-90
2022/05/26 21:46:10;;;;;;;2.00;1.80;;;15.10;99.90;;;;;;4797791;29;20474;-89
2022/05/26 21:48:49;;;;;;;2.80;2.60;;;15.10;99.90;;;;;;4796157;29;20560;-88
2022/05/26 21:51:26;;;;;;;2.33;2.13;;;15.10;99.90;;;;;;4798049;29;20449;-89
2022/05/26 21:53:52;;;;;;;2.93;2.70;;;15.00;99.90;;;;;;4780779;29;21128;-89
2022/05/26 21:56:18;;;;;;;3.83;2.20;;;14.80;99.90;;;;;;4783692;29;20809;-89
2022/05/26 21:59:17;;;;;;;3.63;2.77;;;14.80;99.90;;;;;;4790473;29;20285;-93
2022/05/26 22:02:06;;;;;;;3.10;2.90;;;14.80;99.90;;;;;;4797055;29;20323;-92
2022/05/26 22:10:46;;;;;;;3.00;2.80;;;14.70;99.90;;;;;;4780894;29;20589;-94
2022/05/26 22:13:14;;;;;;;2.93;2.73;;;14.60;99.90;;;;;;4777518;29;20517;-96
2022/05/26 22:15:43;;;;;;;3.37;3.10;;;14.50;99.90;;;;;;4811950;29;20490;-95
2022/05/26 22:18:44;;;;;;;4.83;3.53;;;14.50;99.90;;;;;;4811577;29;21127;-96
2022/05/26 22:21:39;;;;;;;2.90;2.70;;;14.40;99.90;;;;;;4801758;29;20990;-96
2022/05/26 22:24:07;;;;;;;2.53;2.33;;;14.40;99.90;;;;;;4806704;29;21764;-96
2022/05/26 22:42:11;;;;;;;3.37;2.60;;;14.20;99.90;;;;;;5067004;23;20525;-95
2022/05/26 22:44:52;;;;;;;2.37;2.17;;;14.10;99.90;;;;;;4828388;29;20502;-95
2022/05/26 22:47:22;;;;;;;2.93;2.50;;;14.10;99.90;;;;;;4822066;29;21277;-94
2022/05/26 22:49:48;;;;;;;2.90;2.40;;;14.00;99.90;;;;;;4820603;29;20490;-93
2022/05/26 22:52:24;;;;;;;3.53;2.40;;;14.00;99.90;;;;;;4848176;29;20553;-94
2022/05/26 22:54:55;;;;;;;2.40;2.10;;;14.00;99.90;;;;;;4853360;29;20197;-93
2022/05/26 22:57:30;;;;;;;2.80;2.60;;;14.10;99.90;;;;;;4839015;29;20459;-94
2022/05/26 23:00:00;;;;;;;2.60;2.50;;;14.00;99.90;;;;;;4845549;29;20468;-95
2022/05/26 23:02:43;;;;;;;2.20;2.10;;;14.00;99.90;;;;;;4822164;29;20458;-94
2022/05/26 23:05:12;;;;;;;2.50;2.30;;;14.00;99.90;;;;;;4846701;29;20455;-94
2022/05/26 23:07:40;;;;;;;2.60;2.40;;;13.90;99.90;;;;;;4833231;29;20467;-94
2022/05/26 23:10:09;;;;;;;3.00;2.80;;;13.90;99.90;;;;;;4847436;29;21446;-92
2022/05/26 23:12:38;;;;;;;2.70;2.50;;;13.90;99.90;;;;;;4832473;29;20455;-95
2022/05/26 23:15:08;;;;;;;2.87;2.67;;;13.80;99.90;;;;;;4838118;29;20446;-93
2022/05/26 23:17:33;;;;;;;3.70;3.40;;;13.80;99.90;;;;;;4834522;29;20577;-95
2022/05/26 23:19:59;;;;;;;2.60;2.40;;;13.70;99.90;;;;;;4836933;29;20897;-95
2022/05/26 23:22:28;;;;;;;2.60;2.40;;;13.70;99.90;;;;;;4833425;29;20219;-95
2022/05/26 23:24:57;;;;;;;3.47;2.70;;;13.60;99.90;;;;;;4831882;29;20199;-95
2022/05/26 23:27:23;;;;;;;3.20;2.90;;;13.70;99.90;;;;;;4834682;29;21316;-96
2022/05/26 23:29:54;;;;;;;2.93;2.63;;;13.70;99.90;;;;;;4828558;29;20949;-95
2022/05/26 23:32:22;;;;;;;2.60;2.40;;;13.80;99.90;;;;;;4831606;29;20230;-95
2022/05/26 23:34:49;;;;;;;3.00;2.80;;;13.80;99.90;;;;;;4835409;29;20534;-96